Time;durP1;ratioP1;P1;durP2;ratioP2;P2;SDS_P1;SDS_P2;PMS_P1;PMS_P2;Temp;Humidity;BMP_temperature;BMP_pressure;BME280_temperature;BME280_humidity;BME280_pressure;Samples;Min_cycle;Max_cycle;Signal;HPM_P1;HPM_P2
2023/10/23 00:02:20;;;;;;;10.13;7.88;;;6.40;99.90;;;;;;7375229;19;20371;-69
2023/10/23 00:04:46;;;;;;;9.40;8.40;;;6.40;99.90;;;;;;7372515;19;20328;-70
2023/10/23 00:07:12;;;;;;;10.50;7.60;;;6.40;99.90;;;;;;7376947;19;20819;-71
2023/10/23 00:09:39;;;;;;;8.68;7.88;;;6.40;99.90;;;;;;7367662;19;20039;-72
2023/10/23 00:12:07;;;;;;;8.02;7.22;;;6.30;99.90;;;;;;7373126;19;20046;-73
2023/10/23 00:14:33;;;;;;;10.07;7.45;;;6.20;99.90;;;;;;7373964;19;20039;-72
2023/10/23 00:16:59;;;;;;;13.27;7.93;;;6.20;99.90;;;;;;7374503;19;20030;-72
2023/10/23 00:19:27;;;;;;;10.07;8.48;;;6.20;99.90;;;;;;7371104;19;20026;-63
2023/10/23 00:21:53;;;;;;;9.30;8.27;;;6.20;99.90;;;;;;7372884;19;20018;-72
2023/10/23 00:24:20;;;;;;;9.27;8.10;;;6.10;99.90;;;;;;7372329;19;20022;-71
2023/10/23 00:26:46;;;;;;;12.95;8.43;;;6.10;99.90;;;;;;7363485;19;20023;-63
2023/10/23 00:29:13;;;;;;;11.38;9.15;;;6.10;99.90;;;;;;7372956;19;20352;-72
2023/10/23 00:31:39;;;;;;;10.20;9.13;;;6.10;99.90;;;;;;7368739;19;20589;-73
2023/10/23 00:34:06;;;;;;;9.80;8.82;;;6.10;99.90;;;;;;7371431;19;20498;-73
2023/10/23 00:36:32;;;;;;;12.32;8.20;;;6.00;99.90;;;;;;7365297;19;20022;-72
2023/10/23 00:38:59;;;;;;;9.20;8.13;;;6.00;99.90;;;;;;7369499;19;20093;-65
2023/10/23 00:41:25;;;;;;;8.75;7.95;;;6.00;99.90;;;;;;7370003;19;20051;-64
2023/10/23 00:43:52;;;;;;;9.18;7.80;;;6.00;99.90;;;;;;7361399;19;20972;-73
2023/10/23 00:46:20;;;;;;;9.32;8.27;;;5.90;99.90;;;;;;7369060;19;20026;-63
2023/10/23 00:48:47;;;;;;;9.05;7.43;;;5.90;99.90;;;;;;7370415;19;20454;-72
2023/10/23 00:51:16;;;;;;;9.95;8.68;;;5.90;99.90;;;;;;7369542;19;20014;-72
2023/10/23 00:53:43;;;;;;;9.27;8.38;;;5.90;99.90;;;;;;7370774;19;20497;-63
2023/10/23 00:56:11;;;;;;;11.05;7.90;;;5.80;99.90;;;;;;7371513;19;20304;-72
2023/10/23 00:58:39;;;;;;;10.27;8.52;;;5.80;99.90;;;;;;7368897;19;20098;-63
2023/10/23 01:01:09;;;;;;;11.40;9.25;;;5.80;99.90;;;;;;7361886;19;20022;-63
2023/10/23 01:03:35;;;;;;;10.20;8.85;;;5.80;99.90;;;;;;7364391;19;20035;-64
2023/10/23 01:06:01;;;;;;;9.75;8.82;;;5.80;99.90;;;;;;7367950;19;20086;-72
2023/10/23 01:08:28;;;;;;;11.80;8.27;;;5.80;99.90;;;;;;7368406;19;20031;-72
2023/10/23 01:10:55;;;;;;;10.77;9.60;;;5.80;99.90;;;;;;7367688;19;20666;-71
2023/10/23 01:13:21;;;;;;;10.98;8.45;;;5.80;99.90;;;;;;7368306;19;20022;-69
2023/10/23 01:15:52;;;;;;;9.85;8.80;;;5.80;99.90;;;;;;7367935;19;20288;-63
2023/10/23 01:18:18;;;;;;;11.55;9.90;;;5.80;99.90;;;;;;7366432;19;20031;-63
2023/10/23 01:20:47;;;;;;;9.80;8.80;;;5.80;99.90;;;;;;7368967;19;20605;-72
2023/10/23 01:23:13;;;;;;;10.20;8.93;;;5.80;99.90;;;;;;7367443;19;20122;-71
2023/10/23 01:25:39;;;;;;;10.60;9.45;;;5.80;99.90;;;;;;7368131;19;20227;-71
2023/10/23 01:28:06;;;;;;;11.07;9.88;;;5.70;99.90;;;;;;7372321;19;20035;-72
2023/10/23 01:30:33;;;;;;;12.52;10.75;;;5.70;99.90;;;;;;7371085;19;20023;-71
2023/10/23 01:32:59;;;;;;;10.43;9.32;;;5.70;99.90;;;;;;7361791;19;20473;-71
2023/10/23 01:35:26;;;;;;;9.63;8.73;;;5.60;99.90;;;;;;7362046;19;20626;-72
2023/10/23 01:37:52;;;;;;;11.07;9.98;;;5.60;99.90;;;;;;7366829;19;20018;-71
2023/10/23 01:40:19;;;;;;;10.27;9.27;;;5.60;99.90;;;;;;7368282;19;20489;-71
2023/10/23 01:42:46;;;;;;;10.05;9.05;;;5.60;99.90;;;;;;7370235;19;20098;-70
2023/10/23 01:45:13;;;;;;;12.85;9.75;;;5.60;99.90;;;;;;7363903;19;20056;-71
2023/10/23 01:47:40;;;;;;;11.85;10.65;;;5.50;99.90;;;;;;7371812;19;20387;-70
2023/10/23 01:50:06;;;;;;;11.88;10.65;;;5.50;99.90;;;;;;7370648;19;20018;-63
2023/10/23 01:52:33;;;;;;;11.30;10.02;;;5.50;99.90;;;;;;7367261;19;20367;-63
2023/10/23 01:54:59;;;;;;;13.10;11.02;;;5.50;99.90;;;;;;7363674;19;20094;-63
2023/10/23 01:57:25;;;;;;;12.70;10.02;;;5.50;99.90;;;;;;7365615;19;20046;-63
2023/10/23 01:59:52;;;;;;;13.57;10.25;;;5.50;99.90;;;;;;7366921;19;20032;-63
2023/10/23 02:02:21;;;;;;;11.98;10.75;;;5.40;99.90;;;;;;7365007;19;20037;-63
2023/10/23 02:04:48;;;;;;;14.55;11.45;;;5.50;99.90;;;;;;7369130;19;20487;-63
2023/10/23 02:07:14;;;;;;;12.13;10.93;;;5.40;99.90;;;;;;7368408;19;20018;-63
2023/10/23 02:09:40;;;;;;;12.68;11.38;;;5.40;99.90;;;;;;7363441;19;20497;-63
2023/10/23 02:12:07;;;;;;;16.08;10.98;;;5.40;99.90;;;;;;7364563;19;20026;-63
2023/10/23 02:14:33;;;;;;;13.38;10.90;;;5.40;99.90;;;;;;7367252;19;20134;-63
2023/10/23 02:17:00;;;;;;;12.82;10.70;;;5.30;99.90;;;;;;7372357;19;20022;-63
2023/10/23 02:19:26;;;;;;;12.13;10.05;;;5.30;99.90;;;;;;7374284;19;20052;-63
2023/10/23 02:21:52;;;;;;;9.15;8.23;;;5.30;99.90;;;;;;7370926;19;20119;-63
2023/10/23 02:24:22;;;;;;;10.85;8.93;;;5.30;99.90;;;;;;7374505;19;20014;-63
2023/10/23 02:26:48;;;;;;;8.20;7.32;;;5.30;99.90;;;;;;7366881;19;20076;-63
2023/10/23 02:29:15;;;;;;;9.88;7.95;;;5.30;99.90;;;;;;7372141;19;20019;-63
2023/10/23 02:31:41;;;;;;;10.68;8.30;;;5.30;99.90;;;;;;7371303;19;20147;-72
2023/10/23 02:34:08;;;;;;;9.80;7.40;;;5.30;99.90;;;;;;7375167;19;20014;-71
2023/10/23 02:36:34;;;;;;;12.43;7.50;;;5.20;99.90;;;;;;7369895;19;20022;-63
2023/10/23 02:39:00;;;;;;;9.25;6.88;;;5.20;99.90;;;;;;7369558;19;20021;-63
2023/10/23 02:41:30;;;;;;;6.93;6.22;;;5.20;99.90;;;;;;7369026;19;20077;-63
2023/10/23 02:43:57;;;;;;;7.18;5.78;;;5.10;99.90;;;;;;7371228;19;20018;-70
2023/10/23 02:46:24;;;;;;;6.32;5.68;;;5.10;99.90;;;;;;7370362;19;20033;-72
2023/10/23 02:48:51;;;;;;;6.90;6.20;;;5.00;99.90;;;;;;7368932;19;20025;-70
2023/10/23 02:51:17;;;;;;;6.60;5.10;;;5.00;99.90;;;;;;7372794;19;20566;-70
2023/10/23 02:53:44;;;;;;;6.05;5.45;;;5.00;99.90;;;;;;7370592;19;20084;-71
2023/10/23 02:56:13;;;;;;;6.25;5.65;;;5.00;99.90;;;;;;7374322;19;20019;-71
2023/10/23 02:58:40;;;;;;;9.18;6.57;;;5.00;99.90;;;;;;7372282;19;20674;-63
2023/10/23 03:01:21;;;;;;;7.32;6.63;;;5.00;99.90;;;;;;7375470;19;20883;-63
2023/10/23 03:03:48;;;;;;;7.40;6.30;;;5.00;99.90;;;;;;7367704;19;20022;-63
2023/10/23 03:06:14;;;;;;;8.57;5.40;;;5.00;99.90;;;;;;7371875;19;20094;-63
2023/10/23 03:08:41;;;;;;;6.97;6.18;;;5.00;99.90;;;;;;7369256;19;20018;-63
2023/10/23 03:11:07;;;;;;;6.00;5.40;;;5.00;99.90;;;;;;7375207;19;20424;-64
2023/10/23 03:13:34;;;;;;;7.38;6.68;;;5.00;99.90;;;;;;7367185;19;20043;-63
2023/10/23 03:16:00;;;;;;;6.25;5.43;;;5.00;99.90;;;;;;7371206;19;20352;-63
2023/10/23 03:18:27;;;;;;;5.03;4.53;;;5.00;99.90;;;;;;7371610;19;20014;-63
2023/10/23 03:20:57;;;;;;;5.65;4.88;;;5.00;99.90;;;;;;7370207;19;20018;-63
2023/10/23 03:23:23;;;;;;;5.28;4.78;;;5.00;99.90;;;;;;7372895;19;20043;-63
2023/10/23 03:25:50;;;;;;;4.65;3.88;;;4.90;99.90;;;;;;7369230;19;20082;-63
2023/10/23 03:28:16;;;;;;;5.97;4.40;;;4.90;99.90;;;;;;7370385;19;20378;-63
2023/10/23 03:30:42;;;;;;;4.65;4.22;;;4.80;99.90;;;;;;7371549;19;20025;-63
2023/10/23 03:33:11;;;;;;;4.60;4.10;;;4.80;99.90;;;;;;7365122;19;20052;-62
2023/10/23 03:35:44;;;;;;;5.38;4.05;;;4.80;99.90;;;;;;7367080;19;20090;-63
2023/10/23 03:38:12;;;;;;;6.53;4.65;;;4.80;99.90;;;;;;7363680;19;20019;-71
2023/10/23 03:40:38;;;;;;;7.03;4.50;;;4.80;99.90;;;;;;7371073;19;20019;-71
2023/10/23 03:43:05;;;;;;;4.95;4.45;;;4.80;99.90;;;;;;7365643;19;20087;-71
2023/10/23 03:45:35;;;;;;;5.72;5.10;;;4.80;99.90;;;;;;7370496;19;20026;-72
2023/10/23 03:48:02;;;;;;;5.95;5.38;;;4.80;99.90;;;;;;7366565;19;20090;-71
2023/10/23 03:50:28;;;;;;;6.43;5.55;;;4.80;99.90;;;;;;7368884;19;20575;-71
2023/10/23 03:52:57;;;;;;;7.05;6.35;;;4.80;99.90;;;;;;7371470;19;20041;-63
2023/10/23 03:55:24;;;;;;;7.43;6.70;;;4.80;99.90;;;;;;7370939;19;20478;-63
2023/10/23 03:57:50;;;;;;;8.10;6.93;;;4.80;99.90;;;;;;7368374;19;20375;-63
2023/10/23 04:00:16;;;;;;;9.18;8.10;;;4.80;99.90;;;;;;7367994;19;20929;-63
2023/10/23 04:02:43;;;;;;;8.70;7.25;;;4.80;99.90;;;;;;7369127;19;20368;-71
2023/10/23 04:05:09;;;;;;;8.18;7.22;;;4.80;99.90;;;;;;7366303;19;20141;-71
2023/10/23 04:07:35;;;;;;;9.15;7.35;;;4.70;99.90;;;;;;7362602;19;20033;-71
2023/10/23 04:10:01;;;;;;;9.52;7.18;;;4.70;99.90;;;;;;7367960;19;20018;-64
2023/10/23 04:12:28;;;;;;;10.88;8.60;;;4.70;99.90;;;;;;7368722;19;20139;-63
2023/10/23 04:14:54;;;;;;;9.05;8.15;;;4.70;99.90;;;;;;7366428;19;20018;-62
2023/10/23 04:17:20;;;;;;;8.90;8.05;;;4.70;99.90;;;;;;7367752;19;20022;-62
2023/10/23 04:19:48;;;;;;;9.30;8.23;;;4.70;99.90;;;;;;7365719;19;20018;-63
2023/10/23 04:22:14;;;;;;;11.00;9.20;;;4.70;99.90;;;;;;7368878;19;20026;-71
2023/10/23 04:24:41;;;;;;;11.50;9.50;;;4.70;99.90;;;;;;7362372;19;20034;-71
2023/10/23 04:27:08;;;;;;;10.60;9.38;;;4.70;99.90;;;;;;7367888;19;20025;-72
2023/10/23 04:29:34;;;;;;;13.40;12.00;;;4.70;99.90;;;;;;7368503;19;20018;-71
2023/10/23 04:32:00;;;;;;;12.00;10.90;;;4.70;99.90;;;;;;7369082;19;20021;-71
2023/10/23 04:34:27;;;;;;;12.88;9.85;;;4.70;99.90;;;;;;7371740;19;20515;-71
2023/10/23 04:36:53;;;;;;;13.15;10.88;;;4.60;99.90;;;;;;7370522;19;20024;-71
2023/10/23 04:39:19;;;;;;;10.45;8.88;;;4.60;99.90;;;;;;7367961;19;20040;-71
2023/10/23 04:41:46;;;;;;;11.73;10.38;;;4.60;99.90;;;;;;7369382;19;20061;-71
2023/10/23 04:44:13;;;;;;;13.25;11.63;;;4.60;99.90;;;;;;7366791;19;20025;-63
2023/10/23 04:46:39;;;;;;;14.20;12.70;;;4.60;99.90;;;;;;7365123;19;20026;-63
2023/10/23 04:49:05;;;;;;;12.52;11.23;;;4.60;99.90;;;;;;7369999;19;20500;-63
2023/10/23 04:51:33;;;;;;;13.82;11.20;;;4.60;99.90;;;;;;7367301;19;20021;-70
2023/10/23 04:54:00;;;;;;;11.48;10.27;;;4.60;99.90;;;;;;7366837;19;21909;-70
2023/10/23 04:56:26;;;;;;;21.75;12.75;;;4.50;99.90;;;;;;7370361;19;20018;-70
2023/10/23 04:58:52;;;;;;;13.02;10.13;;;4.50;99.90;;;;;;7364120;19;20022;-62
2023/10/23 05:01:19;;;;;;;13.32;11.35;;;4.60;99.90;;;;;;7373073;19;20082;-63
2023/10/23 05:03:45;;;;;;;14.02;10.10;;;4.50;99.90;;;;;;7358815;19;20500;-63
2023/10/23 05:06:12;;;;;;;11.27;10.07;;;4.50;99.90;;;;;;7370259;19;20030;-62
2023/10/23 05:08:38;;;;;;;14.02;10.20;;;4.50;99.90;;;;;;7362940;19;20039;-62
2023/10/23 05:11:06;;;;;;;12.23;10.35;;;4.40;99.90;;;;;;7369957;19;20041;-63
2023/10/23 05:13:32;;;;;;;11.52;10.18;;;4.40;99.90;;;;;;7367534;19;20010;-63
2023/10/23 05:16:05;;;;;;;14.30;9.70;;;4.30;99.90;;;;;;7364308;19;20037;-63
2023/10/23 05:18:33;;;;;;;11.88;10.68;;;4.40;99.90;;;;;;7369447;19;20380;-63
2023/10/23 05:21:09;;;;;;;11.18;10.05;;;4.30;99.90;;;;;;7368783;19;20014;-70
2023/10/23 05:23:36;;;;;;;12.73;11.07;;;4.30;99.90;;;;;;7367537;19;20481;-63
2023/10/23 05:26:03;;;;;;;13.90;10.45;;;4.30;99.90;;;;;;7368096;19;20058;-63
2023/10/23 05:28:29;;;;;;;13.02;11.00;;;4.30;99.90;;;;;;7365102;19;20093;-63
2023/10/23 05:30:55;;;;;;;12.20;10.90;;;4.30;99.90;;;;;;7365361;19;20014;-63
2023/10/23 05:33:21;;;;;;;13.05;11.57;;;4.30;99.90;;;;;;7368358;19;20018;-65
2023/10/23 05:35:48;;;;;;;12.50;11.15;;;4.30;99.90;;;;;;7365390;19;20022;-63
2023/10/23 05:38:14;;;;;;;11.02;9.88;;;4.30;99.90;;;;;;7364633;19;20852;-61
2023/10/23 05:40:40;;;;;;;72.53;13.07;;;4.30;99.90;;;;;;7368856;19;20018;-69
2023/10/23 05:43:06;;;;;;;19.25;11.00;;;4.40;99.90;;;;;;7367313;19;20018;-63
2023/10/23 05:45:36;;;;;;;29.92;11.60;;;4.30;99.90;;;;;;7365124;19;20056;-63
2023/10/23 05:48:02;;;;;;;12.43;10.52;;;4.20;99.90;;;;;;7367556;19;20070;-71
2023/10/23 05:50:29;;;;;;;36.22;12.52;;;4.20;99.90;;;;;;7372806;19;20011;-70
2023/10/23 05:52:55;;;;;;;11.25;10.02;;;4.20;99.90;;;;;;7367630;19;20444;-63
2023/10/23 05:55:21;;;;;;;15.40;10.48;;;4.20;99.90;;;;;;7371776;19;20082;-70
2023/10/23 05:57:47;;;;;;;13.43;11.93;;;4.20;99.90;;;;;;7370985;19;20031;-66
2023/10/23 06:00:14;;;;;;;12.73;10.82;;;4.20;99.90;;;;;;7371343;19;20035;-63
2023/10/23 06:02:40;;;;;;;17.08;12.38;;;4.20;99.90;;;;;;7365847;19;20027;-63
2023/10/23 06:05:09;;;;;;;11.52;10.30;;;4.20;99.90;;;;;;7371960;19;20014;-70
2023/10/23 06:07:35;;;;;;;12.88;11.00;;;4.20;99.90;;;;;;7366651;19;20082;-64
2023/10/23 06:10:01;;;;;;;11.23;10.02;;;4.10;99.90;;;;;;7374053;19;20027;-63
2023/10/23 06:12:27;;;;;;;12.25;10.45;;;4.10;99.90;;;;;;7365054;19;20452;-70
2023/10/23 06:14:54;;;;;;;13.40;12.00;;;4.20;99.90;;;;;;7366557;19;20359;-63
2023/10/23 06:17:20;;;;;;;12.35;10.65;;;4.20;99.90;;;;;;7370398;19;20026;-64
2023/10/23 06:19:46;;;;;;;14.35;12.73;;;4.20;99.90;;;;;;7366951;19;20091;-63
2023/10/23 06:22:13;;;;;;;14.82;11.70;;;4.30;99.90;;;;;;7366612;19;20045;-70
2023/10/23 06:24:39;;;;;;;15.45;13.18;;;4.30;99.90;;;;;;7370859;19;20015;-70
2023/10/23 06:27:05;;;;;;;15.88;12.50;;;4.30;99.90;;;;;;7368999;19;20011;-63
2023/10/23 06:29:31;;;;;;;14.68;12.65;;;4.40;99.90;;;;;;7370566;19;20041;-70
2023/10/23 06:31:58;;;;;;;17.45;14.02;;;4.40;99.90;;;;;;7366310;19;20018;-70
2023/10/23 06:34:24;;;;;;;13.82;12.25;;;4.40;99.90;;;;;;7370513;19;20022;-63
2023/10/23 06:36:50;;;;;;;14.40;12.82;;;4.50;99.90;;;;;;7367006;19;20973;-63
2023/10/23 06:39:16;;;;;;;18.13;13.38;;;4.50;99.90;;;;;;7366416;19;20022;-63
2023/10/23 06:41:43;;;;;;;14.57;12.48;;;4.50;99.90;;;;;;7362725;19;20010;-70
2023/10/23 06:44:09;;;;;;;15.77;12.90;;;4.60;99.90;;;;;;7366389;19;20014;-69
2023/10/23 06:46:36;;;;;;;15.45;12.70;;;4.60;99.90;;;;;;7366658;19;20856;-70
2023/10/23 06:49:03;;;;;;;16.25;13.90;;;4.60;99.90;;;;;;7368589;19;20018;-70
2023/10/23 06:51:29;;;;;;;17.42;14.32;;;4.70;99.90;;;;;;7368591;19;20057;-70
2023/10/23 06:53:56;;;;;;;16.20;14.43;;;4.70;99.90;;;;;;7370699;19;20422;-70
2023/10/23 06:56:22;;;;;;;17.25;13.80;;;4.80;99.90;;;;;;7365116;19;20033;-70
2023/10/23 06:58:48;;;;;;;16.20;14.50;;;4.80;99.90;;;;;;7364467;19;20015;-68
2023/10/23 07:01:15;;;;;;;17.98;13.45;;;4.80;99.90;;;;;;7369927;19;20025;-71
2023/10/23 07:03:42;;;;;;;18.65;14.98;;;4.90;99.90;;;;;;7371707;19;20371;-68
2023/10/23 07:06:11;;;;;;;17.30;15.07;;;4.90;99.90;;;;;;7374654;19;20029;-68
2023/10/23 07:08:39;;;;;;;19.90;14.98;;;4.90;99.90;;;;;;7371930;19;20026;-68
2023/10/23 07:11:16;;;;;;;19.65;15.15;;;4.90;99.90;;;;;;7376582;19;20025;-68
2023/10/23 07:13:43;;;;;;;17.65;14.90;;;5.00;99.90;;;;;;7375008;19;20022;-63
2023/10/23 07:16:09;;;;;;;18.65;14.18;;;5.10;99.90;;;;;;7371905;19;20033;-62
2023/10/23 07:18:35;;;;;;;34.20;18.33;;;5.20;99.90;;;;;;7376137;19;20014;-63
2023/10/23 07:21:01;;;;;;;38.60;18.52;;;5.30;99.90;;;;;;7374582;19;20025;-62
2023/10/23 07:23:31;;;;;;;85.03;21.52;;;5.50;99.90;;;;;;7373009;19;20024;-62
2023/10/23 07:26:12;;;;;;;119.70;22.60;;;5.60;99.90;;;;;;7376095;19;20030;-64
2023/10/23 07:28:38;;;;;;;103.40;22.40;;;5.70;99.90;;;;;;7370472;19;20014;-66
2023/10/23 07:31:06;;;;;;;96.00;23.90;;;5.80;99.90;;;;;;7375839;19;20015;-67
2023/10/23 07:33:32;;;;;;;50.10;20.80;;;5.90;99.90;;;;;;7378847;19;20018;-63
2023/10/23 07:36:09;;;;;;;40.15;19.50;;;6.10;99.90;;;;;;7371008;19;20021;-64
2023/10/23 07:38:37;;;;;;;47.08;17.63;;;6.30;99.90;;;;;;7370879;19;20048;-64
2023/10/23 07:41:04;;;;;;;46.15;18.38;;;6.60;99.90;;;;;;7374964;19;20018;-64
2023/10/23 07:43:30;;;;;;;40.85;16.40;;;6.80;99.90;;;;;;7372136;19;20043;-62
2023/10/23 07:45:57;;;;;;;43.95;14.88;;;7.10;99.90;;;;;;7371873;19;20078;-62
2023/10/23 07:48:25;;;;;;;68.68;15.15;;;7.20;99.90;;;;;;7370460;19;20026;-62
2023/10/23 07:50:51;;;;;;;102.95;20.17;;;7.40;99.90;;;;;;7369734;19;20022;-63
2023/10/23 07:53:17;;;;;;;32.65;11.63;;;7.50;99.90;;;;;;7372027;19;20048;-61
2023/10/23 07:55:44;;;;;;;28.75;12.15;;;7.60;99.90;;;;;;7371664;19;20015;-62
2023/10/23 07:58:10;;;;;;;52.53;13.55;;;7.70;99.90;;;;;;7371811;19;20044;-62
2023/10/23 08:00:36;;;;;;;47.47;11.88;;;7.90;99.90;;;;;;7372005;19;20020;-65
2023/10/23 08:03:02;;;;;;;48.60;11.23;;;8.00;99.90;;;;;;7374082;19;20085;-62
2023/10/23 08:05:29;;;;;;;61.65;12.63;;;8.20;99.90;;;;;;7370750;19;20777;-62
2023/10/23 08:07:55;;;;;;;45.58;11.85;;;8.40;99.90;;;;;;7372091;19;20048;-62
2023/10/23 08:10:21;;;;;;;43.47;11.07;;;8.60;99.90;;;;;;7371338;19;20018;-62
2023/10/23 08:12:49;;;;;;;68.93;11.63;;;8.70;99.90;;;;;;7367563;19;20490;-62
2023/10/23 08:15:16;;;;;;;63.05;11.23;;;8.90;99.90;;;;;;7374854;19;20014;-62
2023/10/23 08:17:42;;;;;;;84.72;12.35;;;9.10;99.90;;;;;;7369737;19;20014;-61
2023/10/23 08:20:09;;;;;;;40.03;9.88;;;9.20;99.90;;;;;;7371761;19;22040;-63
2023/10/23 08:22:35;;;;;;;50.00;10.43;;;9.20;99.90;;;;;;7370783;19;20669;-62
2023/10/23 08:25:02;;;;;;;40.67;10.32;;;9.30;99.90;;;;;;7374750;19;20011;-62
2023/10/23 08:27:30;;;;;;;33.13;9.70;;;9.40;99.90;;;;;;7372525;19;20019;-62
2023/10/23 08:29:56;;;;;;;31.73;9.90;;;9.60;99.90;;;;;;7372985;19;20093;-62
2023/10/23 08:32:22;;;;;;;30.90;9.52;;;9.50;99.90;;;;;;7372408;19;20025;-67
2023/10/23 08:34:52;;;;;;;32.63;9.50;;;9.70;99.90;;;;;;7372373;19;20018;-66
2023/10/23 08:37:18;;;;;;;24.13;8.20;;;9.80;99.90;;;;;;7373371;19;20026;-66
2023/10/23 08:39:45;;;;;;;41.72;9.57;;;9.80;99.90;;;;;;7373974;19;20797;-69
2023/10/23 08:42:11;;;;;;;24.02;9.65;;;10.00;99.90;;;;;;7374041;19;20018;-63
2023/10/23 08:44:37;;;;;;;46.90;9.57;;;10.20;99.90;;;;;;7370361;19;20019;-63
2023/10/23 08:47:04;;;;;;;39.33;8.63;;;10.30;99.90;;;;;;7370964;19;20018;-63
2023/10/23 08:49:31;;;;;;;38.35;9.50;;;10.60;99.90;;;;;;7372370;19;20018;-62
2023/10/23 08:51:59;;;;;;;48.20;9.55;;;10.70;99.90;;;;;;7369906;19;20042;-62
2023/10/23 08:54:27;;;;;;;15.55;9.60;;;10.70;99.90;;;;;;7373087;19;20020;-62
2023/10/23 08:56:59;;;;;;;19.10;8.52;;;10.60;99.90;;;;;;7369867;19;20515;-62
2023/10/23 08:59:25;;;;;;;28.13;8.88;;;10.80;99.90;;;;;;7370348;19;20006;-67
2023/10/23 09:01:52;;;;;;;20.35;8.95;;;10.90;99.90;;;;;;7368686;19;20033;-63
2023/10/23 09:04:18;;;;;;;28.92;8.52;;;11.10;99.90;;;;;;7369593;19;20026;-62
2023/10/23 09:06:46;;;;;;;24.60;8.93;;;11.40;99.90;;;;;;7365165;19;20471;-62
2023/10/23 09:09:12;;;;;;;36.53;9.65;;;11.40;99.90;;;;;;7373283;19;20648;-63
2023/10/23 09:11:44;;;;;;;53.72;10.40;;;11.40;99.90;;;;;;7366557;19;20018;-67
2023/10/23 09:14:11;;;;;;;39.22;9.65;;;11.50;99.90;;;;;;7371835;19;20594;-66
2023/10/23 09:16:38;;;;;;;13.65;8.45;;;11.20;99.90;;;;;;7367074;19;20040;-67
2023/10/23 09:19:04;;;;;;;46.22;10.20;;;11.20;99.90;;;;;;7371580;19;20510;-63
2023/10/23 09:21:32;;;;;;;72.45;11.60;;;11.20;99.90;;;;;;7369031;19;20026;-63
2023/10/23 09:24:00;;;;;;;24.25;9.80;;;11.00;99.90;;;;;;7364718;19;20632;-66
2023/10/23 09:26:26;;;;;;;81.25;11.52;;;11.10;99.90;;;;;;7376307;19;20031;-66
2023/10/23 09:28:53;;;;;;;44.92;10.57;;;11.30;99.90;;;;;;7369075;19;20014;-62
2023/10/23 09:31:20;;;;;;;61.65;11.57;;;11.00;99.90;;;;;;7374173;19;20094;-62
2023/10/23 09:33:49;;;;;;;133.35;15.88;;;11.10;99.90;;;;;;7365343;19;20014;-66
2023/10/23 09:36:16;;;;;;;81.50;14.40;;;11.30;99.90;;;;;;7373319;19;20014;-66
2023/10/23 09:38:43;;;;;;;106.53;14.88;;;11.20;99.90;;;;;;7370080;19;20030;-67
2023/10/23 09:41:11;;;;;;;40.72;12.65;;;11.40;99.90;;;;;;7369591;19;20311;-67
2023/10/23 09:43:47;;;;;;;55.53;13.52;;;11.50;99.90;;;;;;7370258;19;20014;-67
2023/10/23 09:46:20;;;;;;;91.18;15.90;;;11.60;99.90;;;;;;7363306;19;20019;-67
2023/10/23 09:48:47;;;;;;;43.10;12.70;;;11.50;99.90;;;;;;7373876;19;20022;-67
2023/10/23 09:51:15;;;;;;;18.55;12.95;;;11.50;99.90;;;;;;7371705;19;20018;-63
2023/10/23 09:53:49;;;;;;;34.22;11.85;;;11.60;99.90;;;;;;7371084;19;20039;-63
2023/10/23 09:56:23;;;;;;;15.82;13.20;;;11.60;99.90;;;;;;7372410;19;20040;-63
2023/10/23 09:58:57;;;;;;;14.68;12.60;;;11.60;99.90;;;;;;7370777;19;20018;-64
2023/10/23 10:01:31;;;;;;;15.60;11.88;;;11.90;99.90;;;;;;7367250;19;20021;-63
2023/10/23 10:04:08;;;;;;;17.65;12.43;;;11.80;99.90;;;;;;7370020;19;20025;-66
2023/10/23 10:06:37;;;;;;;26.85;13.63;;;11.80;99.90;;;;;;7369192;19;20089;-67
2023/10/23 10:09:12;;;;;;;31.80;14.35;;;11.80;99.90;;;;;;7369705;19;20090;-67
2023/10/23 10:11:42;;;;;;;17.38;13.60;;;11.80;99.90;;;;;;7370870;19;20027;-67
2023/10/23 10:14:09;;;;;;;21.45;15.00;;;11.70;99.90;;;;;;7371504;19;20526;-67
2023/10/23 10:16:37;;;;;;;20.90;15.63;;;11.60;99.90;;;;;;7372856;19;20015;-67
2023/10/23 10:19:04;;;;;;;25.33;17.70;;;11.40;99.90;;;;;;7368201;19;20015;-63
2023/10/23 10:21:44;;;;;;;20.42;18.02;;;11.50;99.90;;;;;;7372869;19;20419;-67
2023/10/23 10:24:13;;;;;;;30.27;24.30;;;11.50;99.90;;;;;;7364447;19;20022;-67
2023/10/23 10:26:40;;;;;;;23.52;19.48;;;11.40;99.90;;;;;;7368396;19;20014;-67
2023/10/23 10:29:08;;;;;;;20.13;17.90;;;11.30;99.90;;;;;;7369300;19;20011;-67
2023/10/23 10:32:02;;;;;;;19.98;17.85;;;11.30;99.90;;;;;;7366997;19;20022;-62
2023/10/23 10:34:30;;;;;;;23.65;18.65;;;11.20;99.90;;;;;;7364538;19;20014;-63
2023/10/23 10:36:57;;;;;;;25.25;19.35;;;11.10;99.90;;;;;;7376220;19;20022;-62
2023/10/23 10:39:46;;;;;;;20.05;17.95;;;11.10;99.90;;;;;;7373030;19;20014;-62
2023/10/23 10:42:24;;;;;;;21.02;17.60;;;11.10;99.90;;;;;;7376852;19;20026;-63
2023/10/23 10:45:11;;;;;;;20.60;18.40;;;11.10;99.90;;;;;;7375230;19;20022;-62
2023/10/23 10:47:43;;;;;;;25.90;19.60;;;11.00;99.90;;;;;;7374336;19;20604;-62
2023/10/23 10:50:12;;;;;;;24.50;20.40;;;11.00;99.90;;;;;;7377321;19;20025;-68
2023/10/23 10:52:43;;;;;;;25.23;21.75;;;11.00;99.90;;;;;;7374369;19;20818;-67
2023/10/23 10:55:11;;;;;;;23.77;20.42;;;11.00;99.90;;;;;;7376780;19;20034;-67
2023/10/23 10:57:42;;;;;;;26.60;22.13;;;11.00;99.90;;;;;;7378089;19;20021;-66
2023/10/23 11:00:12;;;;;;;22.80;20.27;;;11.00;99.90;;;;;;7374029;19;20055;-62
2023/10/23 11:02:39;;;;;;;27.13;22.05;;;11.10;99.90;;;;;;7374425;19;20018;-62
2023/10/23 11:05:13;;;;;;;25.40;22.25;;;11.10;99.90;;;;;;7375082;19;20019;-63
2023/10/23 11:07:40;;;;;;;25.90;21.55;;;11.20;99.90;;;;;;7374750;19;20686;-63
2023/10/23 11:10:08;;;;;;;23.67;20.65;;;11.20;99.90;;;;;;7379907;19;20026;-62
2023/10/23 11:12:35;;;;;;;23.58;20.60;;;11.20;99.90;;;;;;7373188;19;20078;-66
2023/10/23 11:15:04;;;;;;;24.77;21.25;;;11.20;99.90;;;;;;7375980;19;20082;-66
2023/10/23 11:17:31;;;;;;;22.05;19.75;;;11.20;99.90;;;;;;7369957;19;20022;-71
2023/10/23 11:19:58;;;;;;;24.95;21.75;;;11.20;99.90;;;;;;7373649;19;20660;-68
2023/10/23 11:22:25;;;;;;;23.17;19.67;;;11.30;99.90;;;;;;7376487;19;20018;-67
2023/10/23 11:24:52;;;;;;;25.90;20.92;;;11.30;99.90;;;;;;7373340;19;20074;-67
2023/10/23 11:27:18;;;;;;;25.10;20.75;;;11.30;99.90;;;;;;7375299;19;20021;-67
2023/10/23 11:29:46;;;;;;;23.73;21.08;;;11.30;99.90;;;;;;7373467;19;20023;-61
2023/10/23 11:32:17;;;;;;;25.52;21.35;;;11.30;99.90;;;;;;7371825;19;20019;-62
2023/10/23 11:34:45;;;;;;;26.15;21.92;;;11.40;99.90;;;;;;7373705;19;20014;-62
2023/10/23 11:37:11;;;;;;;27.42;23.00;;;11.50;99.90;;;;;;7370369;19;20046;-61
2023/10/23 11:39:42;;;;;;;26.60;23.13;;;11.60;99.90;;;;;;7371796;19;20074;-61
2023/10/23 11:42:10;;;;;;;23.10;20.15;;;11.80;99.90;;;;;;7374069;19;20010;-67
2023/10/23 11:44:36;;;;;;;23.92;21.25;;;11.80;99.90;;;;;;7379111;19;20018;-67
2023/10/23 11:47:07;;;;;;;33.08;27.88;;;11.80;99.90;;;;;;7370598;19;20110;-68
2023/10/23 11:49:33;;;;;;;26.33;22.80;;;11.80;99.90;;;;;;7375726;19;20032;-68
2023/10/23 11:52:01;;;;;;;28.42;23.13;;;11.80;99.90;;;;;;7370662;19;20014;-67
2023/10/23 11:54:28;;;;;;;25.10;22.10;;;11.90;99.90;;;;;;7378032;19;20022;-67
2023/10/23 11:56:56;;;;;;;27.48;21.95;;;11.90;99.90;;;;;;7369676;19;20032;-67
2023/10/23 11:59:23;;;;;;;26.15;23.35;;;11.90;99.90;;;;;;7373735;19;20014;-61
2023/10/23 12:01:50;;;;;;;26.63;23.13;;;12.00;99.90;;;;;;7374116;19;20424;-61
2023/10/23 12:04:16;;;;;;;28.95;25.20;;;12.10;99.90;;;;;;7368517;19;20382;-61
2023/10/23 12:06:42;;;;;;;27.58;22.65;;;12.20;99.90;;;;;;7375513;19;20025;-61
2023/10/23 12:09:11;;;;;;;37.65;31.55;;;12.30;99.90;;;;;;7369370;19;20681;-61
2023/10/23 12:11:40;;;;;;;27.73;23.05;;;12.50;99.90;;;;;;7374153;19;20018;-61
2023/10/23 12:14:06;;;;;;;27.73;23.85;;;12.50;99.90;;;;;;7373986;19;20021;-61
2023/10/23 12:16:33;;;;;;;27.35;24.15;;;12.50;99.90;;;;;;7374681;19;20024;-67
2023/10/23 12:18:59;;;;;;;29.85;25.27;;;12.50;99.90;;;;;;7370930;19;20018;-61
2023/10/23 12:21:26;;;;;;;29.55;24.73;;;12.40;99.90;;;;;;7371465;19;20060;-60
2023/10/23 12:23:53;;;;;;;30.00;26.80;;;12.40;99.90;;;;;;7371720;19;20577;-64
2023/10/23 12:26:20;;;;;;;27.48;24.40;;;12.40;99.90;;;;;;7366248;19;20086;-61
2023/10/23 12:28:46;;;;;;;27.77;22.73;;;12.50;99.90;;;;;;7373866;19;20460;-61
2023/10/23 12:31:13;;;;;;;27.35;24.45;;;12.60;99.90;;;;;;7369091;19;20039;-60
2023/10/23 12:33:39;;;;;;;34.78;30.00;;;12.70;99.90;;;;;;7375250;19;20070;-61
2023/10/23 12:36:05;;;;;;;43.28;38.55;;;12.80;99.90;;;;;;7372001;19;20014;-60
2023/10/23 12:38:35;;;;;;;24.85;22.00;;;12.80;99.90;;;;;;7373994;19;20109;-60
2023/10/23 12:41:02;;;;;;;27.63;23.40;;;12.80;99.90;;;;;;7370556;19;20018;-60